sensor_id;sensor_type;location;lat;lon;timestamp;pressure;altitude;pressure_sealevel;temperature
45701;BMP280;36277;32.852;-116.998;2022-08-20T00:00:52;99295.56;;;26.73
45701;BMP280;36277;32.852;-116.998;2022-08-20T00:03:23;99286.94;;;26.63
45701;BMP280;36277;32.852;-116.998;2022-08-20T00:06:13;99286.72;;;26.82
45701;BMP280;36277;32.852;-116.998;2022-08-20T00:08:41;99286.94;;;26.99
45701;BMP280;36277;32.852;-116.998;2022-08-20T00:11:10;99281.31;;;27.23
45701;BMP280;36277;32.852;-116.998;2022-08-20T00:13:43;99287.19;;;27.45
45701;BMP280;36277;32.852;-116.998;2022-08-20T00:16:12;99277.56;;;27.58
45701;BMP280;36277;32.852;-116.998;2022-08-20T00:18:40;99283.47;;;27.51
45701;BMP280;36277;32.852;-116.998;2022-08-20T00:21:09;99278.16;;;27.20
45701;BMP280;36277;32.852;-116.998;2022-08-20T00:23:39;99287.72;;;27.06
45701;BMP280;36277;32.852;-116.998;2022-08-20T00:26:07;99290.31;;;26.83
45701;BMP280;36277;32.852;-116.998;2022-08-20T00:28:35;99286.81;;;26.76
45701;BMP280;36277;32.852;-116.998;2022-08-20T00:31:03;99291.66;;;26.62
45701;BMP280;36277;32.852;-116.998;2022-08-20T00:33:31;99294.78;;;26.66
45701;BMP280;36277;32.852;-116.998;2022-08-20T00:36:01;99294.31;;;26.87
45701;BMP280;36277;32.852;-116.998;2022-08-20T00:38:32;99297.88;;;27.12
45701;BMP280;36277;32.852;-116.998;2022-08-20T00:40:59;99300.13;;;27.33
45701;BMP280;36277;32.852;-116.998;2022-08-20T00:43:38;99303.00;;;27.55
45701;BMP280;36277;32.852;-116.998;2022-08-20T00:46:13;99300.78;;;27.46
45701;BMP280;36277;32.852;-116.998;2022-08-20T00:48:42;99300.47;;;27.25
45701;BMP280;36277;32.852;-116.998;2022-08-20T00:54:12;99301.22;;;26.78
45701;BMP280;36277;32.852;-116.998;2022-08-20T00:56:39;99296.66;;;26.72
45701;BMP280;36277;32.852;-116.998;2022-08-20T00:59:13;99289.47;;;26.46
45701;BMP280;36277;32.852;-116.998;2022-08-20T01:01:41;99291.94;;;26.72
45701;BMP280;36277;32.852;-116.998;2022-08-20T01:04:08;99295.47;;;26.97
45701;BMP280;36277;32.852;-116.998;2022-08-20T01:06:37;99297.56;;;27.20
45701;BMP280;36277;32.852;-116.998;2022-08-20T01:09:04;99298.38;;;27.38
45701;BMP280;36277;32.852;-116.998;2022-08-20T01:11:31;99302.16;;;27.55
45701;BMP280;36277;32.852;-116.998;2022-08-20T01:14:01;99301.22;;;27.32
45701;BMP280;36277;32.852;-116.998;2022-08-20T01:16:45;99300.63;;;27.12
45701;BMP280;36277;32.852;-116.998;2022-08-20T01:19:16;99303.50;;;26.87
45701;BMP280;36277;32.852;-116.998;2022-08-20T01:21:47;99306.31;;;26.63
45701;BMP280;36277;32.852;-116.998;2022-08-20T01:24:20;99301.69;;;26.57
45701;BMP280;36277;32.852;-116.998;2022-08-20T01:26:48;99311.56;;;26.71
45701;BMP280;36277;32.852;-116.998;2022-08-20T01:29:23;99312.78;;;26.93
45701;BMP280;36277;32.852;-116.998;2022-08-20T01:31:50;99313.66;;;27.11
45701;BMP280;36277;32.852;-116.998;2022-08-20T01:34:19;99312.53;;;27.30
45701;BMP280;36277;32.852;-116.998;2022-08-20T01:36:51;99313.22;;;27.44
45701;BMP280;36277;32.852;-116.998;2022-08-20T01:39:29;99310.91;;;27.41
45701;BMP280;36277;32.852;-116.998;2022-08-20T01:44:36;99318.03;;;27.01
45701;BMP280;36277;32.852;-116.998;2022-08-20T01:47:19;99318.47;;;26.98
45701;BMP280;36277;32.852;-116.998;2022-08-20T01:49:50;99315.47;;;26.81
45701;BMP280;36277;32.852;-116.998;2022-08-20T01:52:38;99320.63;;;26.96
45701;BMP280;36277;32.852;-116.998;2022-08-20T01:55:08;99328.19;;;27.07
45701;BMP280;36277;32.852;-116.998;2022-08-20T01:57:36;99321.41;;;27.21
45701;BMP280;36277;32.852;-116.998;2022-08-20T02:00:10;99325.69;;;27.35
45701;BMP280;36277;32.852;-116.998;2022-08-20T02:02:38;99322.97;;;27.46
45701;BMP280;36277;32.852;-116.998;2022-08-20T02:05:05;99328.41;;;27.23
45701;BMP280;36277;32.852;-116.998;2022-08-20T02:07:32;99341.31;;;26.93
45701;BMP280;36277;32.852;-116.998;2022-08-20T02:09:59;99340.06;;;26.71
45701;BMP280;36277;32.852;-116.998;2022-08-20T02:12:25;99335.22;;;26.49
45701;BMP280;36277;32.852;-116.998;2022-08-20T02:14:53;99348.75;;;26.57
45701;BMP280;36277;32.852;-116.998;2022-08-20T02:17:22;99345.41;;;26.73
45701;BMP280;36277;32.852;-116.998;2022-08-20T02:19:59;99358.63;;;26.89
45701;BMP280;36277;32.852;-116.998;2022-08-20T02:22:53;99363.97;;;27.08
45701;BMP280;36277;32.852;-116.998;2022-08-20T02:25:23;99366.34;;;27.23
45701;BMP280;36277;32.852;-116.998;2022-08-20T02:27:51;99364.47;;;27.35
45701;BMP280;36277;32.852;-116.998;2022-08-20T02:30:21;99362.63;;;27.47
45701;BMP280;36277;32.852;-116.998;2022-08-20T02:32:48;99361.84;;;27.40
45701;BMP280;36277;32.852;-116.998;2022-08-20T02:35:15;99365.06;;;27.07
45701;BMP280;36277;32.852;-116.998;2022-08-20T02:37:44;99365.53;;;26.80
45701;BMP280;36277;32.852;-116.998;2022-08-20T02:40:14;99365.13;;;26.58
45701;BMP280;36277;32.852;-116.998;2022-08-20T02:42:41;99375.19;;;26.53
45701;BMP280;36277;32.852;-116.998;2022-08-20T02:45:17;99375.00;;;26.72
45701;BMP280;36277;32.852;-116.998;2022-08-20T02:47:45;99380.41;;;26.85
45701;BMP280;36277;32.852;-116.998;2022-08-20T02:50:16;99370.16;;;27.04
45701;BMP280;36277;32.852;-116.998;2022-08-20T02:52:43;99379.19;;;27.17
45701;BMP280;36277;32.852;-116.998;2022-08-20T02:55:11;99381.19;;;27.28
45701;BMP280;36277;32.852;-116.998;2022-08-20T02:57:38;99392.19;;;27.35
45701;BMP280;36277;32.852;-116.998;2022-08-20T03:00:17;99378.84;;;27.43
45701;BMP280;36277;32.852;-116.998;2022-08-20T03:02:44;99395.03;;;27.46
45701;BMP280;36277;32.852;-116.998;2022-08-20T03:05:11;99394.09;;;27.52
45701;BMP280;36277;32.852;-116.998;2022-08-20T03:07:47;99396.31;;;27.61
45701;BMP280;36277;32.852;-116.998;2022-08-20T03:10:14;99401.78;;;27.50
45701;BMP280;36277;32.852;-116.998;2022-08-20T03:12:41;99399.50;;;27.29
45701;BMP280;36277;32.852;-116.998;2022-08-20T03:15:09;99403.03;;;27.00
45701;BMP280;36277;32.852;-116.998;2022-08-20T03:17:36;99404.28;;;26.80
45701;BMP280;36277;32.852;-116.998;2022-08-20T03:20:07;99412.16;;;26.83
45701;BMP280;36277;32.852;-116.998;2022-08-20T03:22:34;99405.09;;;26.87
45701;BMP280;36277;32.852;-116.998;2022-08-20T03:25:00;99407.09;;;26.98
45701;BMP280;36277;32.852;-116.998;2022-08-20T03:27:27;99410.38;;;27.13
45701;BMP280;36277;32.852;-116.998;2022-08-20T03:29:53;99419.75;;;27.12
45701;BMP280;36277;32.852;-116.998;2022-08-20T03:32:19;99419.91;;;27.17
45701;BMP280;36277;32.852;-116.998;2022-08-20T03:34:45;99421.16;;;27.21
45701;BMP280;36277;32.852;-116.998;2022-08-20T03:37:11;99423.38;;;27.30
45701;BMP280;36277;32.852;-116.998;2022-08-20T03:39:38;99419.44;;;27.38
45701;BMP280;36277;32.852;-116.998;2022-08-20T03:42:05;99421.91;;;27.46
45701;BMP280;36277;32.852;-116.998;2022-08-20T03:44:32;99422.19;;;27.55
45701;BMP280;36277;32.852;-116.998;2022-08-20T03:46:59;99422.94;;;27.62
45701;BMP280;36277;32.852;-116.998;2022-08-20T03:49:25;99425.03;;;27.67
45701;BMP280;36277;32.852;-116.998;2022-08-20T03:51:51;99421.34;;;27.73
45701;BMP280;36277;32.852;-116.998;2022-08-20T03:54:17;99428.53;;;27.45
45701;BMP280;36277;32.852;-116.998;2022-08-20T03:56:44;99428.31;;;27.28
45701;BMP280;36277;32.852;-116.998;2022-08-20T03:59:10;99429.59;;;27.08
45701;BMP280;36277;32.852;-116.998;2022-08-20T04:01:36;99435.09;;;26.90
45701;BMP280;36277;32.852;-116.998;2022-08-20T04:04:02;99441.88;;;26.94
45701;BMP280;36277;32.852;-116.998;2022-08-20T04:06:29;99438.22;;;26.93
45701;BMP280;36277;32.852;-116.998;2022-08-20T04:08:55;99437.16;;;26.94
45701;BMP280;36277;32.852;-116.998;2022-08-20T04:11:22;99442.50;;;26.96
45701;BMP280;36277;32.852;-116.998;2022-08-20T04:13:48;99441.16;;;26.98
45701;BMP280;36277;32.852;-116.998;2022-08-20T04:16:15;99437.28;;;27.06
45701;BMP280;36277;32.852;-116.998;2022-08-20T04:18:41;99449.16;;;27.13
45701;BMP280;36277;32.852;-116.998;2022-08-20T04:21:08;99451.63;;;27.21
45701;BMP280;36277;32.852;-116.998;2022-08-20T04:23:34;99456.84;;;27.29
45701;BMP280;36277;32.852;-116.998;2022-08-20T04:26:00;99452.78;;;27.31
45701;BMP280;36277;32.852;-116.998;2022-08-20T04:28:26;99446.69;;;27.41
45701;BMP280;36277;32.852;-116.998;2022-08-20T04:30:54;99452.59;;;27.44
45701;BMP280;36277;32.852;-116.998;2022-08-20T04:33:21;99447.69;;;27.46
45701;BMP280;36277;32.852;-116.998;2022-08-20T04:35:51;99452.56;;;27.51
45701;BMP280;36277;32.852;-116.998;2022-08-20T04:38:20;99457.16;;;27.56
45701;BMP280;36277;32.852;-116.998;2022-08-20T04:40:47;99446.06;;;27.56
45701;BMP280;36277;32.852;-116.998;2022-08-20T04:43:42;99446.84;;;27.46
45701;BMP280;36277;32.852;-116.998;2022-08-20T04:46:08;99450.13;;;27.18
45701;BMP280;36277;32.852;-116.998;2022-08-20T04:48:35;99446.22;;;26.83
45701;BMP280;36277;32.852;-116.998;2022-08-20T04:51:06;99443.72;;;26.57
45701;BMP280;36277;32.852;-116.998;2022-08-20T04:53:33;99447.56;;;26.56
45701;BMP280;36277;32.852;-116.998;2022-08-20T04:56:00;99450.88;;;26.65
45701;BMP280;36277;32.852;-116.998;2022-08-20T04:58:33;99447.59;;;26.74
45701;BMP280;36277;32.852;-116.998;2022-08-20T05:01:03;99447.38;;;26.76
45701;BMP280;36277;32.852;-116.998;2022-08-20T05:03:30;99452.44;;;26.79
45701;BMP280;36277;32.852;-116.998;2022-08-20T05:05:58;99454.38;;;26.78
45701;BMP280;36277;32.852;-116.998;2022-08-20T05:08:27;99442.22;;;26.79
45701;BMP280;36277;32.852;-116.998;2022-08-20T05:10:55;99448.38;;;26.81
45701;BMP280;36277;32.852;-116.998;2022-08-20T05:13:23;99446.44;;;26.82
45701;BMP280;36277;32.852;-116.998;2022-08-20T05:15:50;99449.00;;;26.83
45701;BMP280;36277;32.852;-116.998;2022-08-20T05:18:19;99450.00;;;26.89
45701;BMP280;36277;32.852;-116.998;2022-08-20T05:20:46;99454.72;;;26.88
45701;BMP280;36277;32.852;-116.998;2022-08-20T05:23:15;99458.47;;;26.94
45701;BMP280;36277;32.852;-116.998;2022-08-20T05:25:43;99452.03;;;27.00
45701;BMP280;36277;32.852;-116.998;2022-08-20T05:28:16;99457.09;;;27.09
45701;BMP280;36277;32.852;-116.998;2022-08-20T05:30:45;99455.56;;;27.13
45701;BMP280;36277;32.852;-116.998;2022-08-20T05:33:12;99458.78;;;27.10
45701;BMP280;36277;32.852;-116.998;2022-08-20T05:35:42;99465.47;;;27.21
45701;BMP280;36277;32.852;-116.998;2022-08-20T05:38:11;99471.78;;;27.28
45701;BMP280;36277;32.852;-116.998;2022-08-20T05:40:39;99457.47;;;27.31
45701;BMP280;36277;32.852;-116.998;2022-08-20T05:43:06;99468.72;;;27.36
45701;BMP280;36277;32.852;-116.998;2022-08-20T05:45:34;99465.47;;;27.39
45701;BMP280;36277;32.852;-116.998;2022-08-20T05:48:06;99467.78;;;27.42
45701;BMP280;36277;32.852;-116.998;2022-08-20T05:50:33;99470.31;;;27.43
45701;BMP280;36277;32.852;-116.998;2022-08-20T05:53:00;99465.38;;;27.45
45701;BMP280;36277;32.852;-116.998;2022-08-20T05:55:27;99470.47;;;27.48
45701;BMP280;36277;32.852;-116.998;2022-08-20T05:57:59;99468.09;;;27.52
45701;BMP280;36277;32.852;-116.998;2022-08-20T06:00:27;99464.47;;;27.51
45701;BMP280;36277;32.852;-116.998;2022-08-20T06:02:54;99458.09;;;27.51
45701;BMP280;36277;32.852;-116.998;2022-08-20T06:05:40;99459.53;;;27.53
45701;BMP280;36277;32.852;-116.998;2022-08-20T06:08:07;99464.72;;;27.50
45701;BMP280;36277;32.852;-116.998;2022-08-20T06:10:35;99467.94;;;27.47
45701;BMP280;36277;32.852;-116.998;2022-08-20T06:13:02;99467.50;;;27.50
45701;BMP280;36277;32.852;-116.998;2022-08-20T06:15:29;99466.53;;;27.55
45701;BMP280;36277;32.852;-116.998;2022-08-20T06:17:56;99465.78;;;27.49
45701;BMP280;36277;32.852;-116.998;2022-08-20T06:20:22;99458.16;;;27.44
45701;BMP280;36277;32.852;-116.998;2022-08-20T06:22:49;99469.22;;;27.08
45701;BMP280;36277;32.852;-116.998;2022-08-20T06:25:15;99463.50;;;26.79
45701;BMP280;36277;32.852;-116.998;2022-08-20T06:27:43;99447.13;;;26.53
45701;BMP280;36277;32.852;-116.998;2022-08-20T06:30:11;99456.09;;;26.24
45701;BMP280;36277;32.852;-116.998;2022-08-20T06:32:38;99453.50;;;25.98
45701;BMP280;36277;32.852;-116.998;2022-08-20T06:35:06;99457.09;;;25.99
45701;BMP280;36277;32.852;-116.998;2022-08-20T06:37:35;99464.19;;;25.75
45701;BMP280;36277;32.852;-116.998;2022-08-20T06:40:23;99467.03;;;25.62
45701;BMP280;36277;32.852;-116.998;2022-08-20T06:42:51;99462.41;;;25.50
45701;BMP280;36277;32.852;-116.998;2022-08-20T06:45:24;99460.16;;;25.21
45701;BMP280;36277;32.852;-116.998;2022-08-20T06:47:57;99457.66;;;24.94
45701;BMP280;36277;32.852;-116.998;2022-08-20T06:50:27;99451.72;;;24.84
45701;BMP280;36277;32.852;-116.998;2022-08-20T06:52:54;99458.75;;;24.60
45701;BMP280;36277;32.852;-116.998;2022-08-20T06:55:21;99466.41;;;24.52
45701;BMP280;36277;32.852;-116.998;2022-08-20T06:58:02;99462.34;;;24.35
45701;BMP280;36277;32.852;-116.998;2022-08-20T07:00:30;99460.81;;;24.13
45701;BMP280;36277;32.852;-116.998;2022-08-20T07:02:58;99455.09;;;24.08
45701;BMP280;36277;32.852;-116.998;2022-08-20T07:05:27;99458.69;;;24.02
45701;BMP280;36277;32.852;-116.998;2022-08-20T07:07:53;99462.25;;;23.90
45701;BMP280;36277;32.852;-116.998;2022-08-20T07:10:22;99471.53;;;23.76
45701;BMP280;36277;32.852;-116.998;2022-08-20T07:12:50;99467.88;;;23.62
45701;BMP280;36277;32.852;-116.998;2022-08-20T07:15:19;99472.91;;;23.52
45701;BMP280;36277;32.852;-116.998;2022-08-20T07:17:51;99479.28;;;23.59
45701;BMP280;36277;32.852;-116.998;2022-08-20T07:20:18;99485.91;;;23.71
45701;BMP280;36277;32.852;-116.998;2022-08-20T07:22:48;99483.06;;;23.92
45701;BMP280;36277;32.852;-116.998;2022-08-20T07:25:16;99481.38;;;24.11
45701;BMP280;36277;32.852;-116.998;2022-08-20T07:27:43;99483.13;;;24.18
45701;BMP280;36277;32.852;-116.998;2022-08-20T07:30:15;99473.50;;;23.95
45701;BMP280;36277;32.852;-116.998;2022-08-20T07:33:00;99474.06;;;23.77
45701;BMP280;36277;32.852;-116.998;2022-08-20T07:35:26;99464.22;;;23.55
45701;BMP280;36277;32.852;-116.998;2022-08-20T07:37:53;99475.66;;;23.52
45701;BMP280;36277;32.852;-116.998;2022-08-20T07:40:26;99476.97;;;23.63
45701;BMP280;36277;32.852;-116.998;2022-08-20T07:42:56;99474.97;;;23.78
45701;BMP280;36277;32.852;-116.998;2022-08-20T07:45:26;99478.38;;;23.93
45701;BMP280;36277;32.852;-116.998;2022-08-20T07:47:52;99470.34;;;24.04
45701;BMP280;36277;32.852;-116.998;2022-08-20T07:50:23;99461.06;;;24.18
45701;BMP280;36277;32.852;-116.998;2022-08-20T07:52:49;99462.75;;;24.25
45701;BMP280;36277;32.852;-116.998;2022-08-20T07:55:20;99469.53;;;24.36
45701;BMP280;36277;32.852;-116.998;2022-08-20T07:57:48;99468.28;;;24.45
45701;BMP280;36277;32.852;-116.998;2022-08-20T08:00:16;99467.03;;;24.54
45701;BMP280;36277;32.852;-116.998;2022-08-20T08:02:43;99462.56;;;24.59
45701;BMP280;36277;32.852;-116.998;2022-08-20T08:05:09;99461.53;;;24.67
45701;BMP280;36277;32.852;-116.998;2022-08-20T08:07:36;99455.56;;;24.76
45701;BMP280;36277;32.852;-116.998;2022-08-20T08:10:06;99456.41;;;24.83
45701;BMP280;36277;32.852;-116.998;2022-08-20T08:12:37;99455.75;;;24.88
45701;BMP280;36277;32.852;-116.998;2022-08-20T08:15:07;99458.72;;;24.93
45701;BMP280;36277;32.852;-116.998;2022-08-20T08:17:35;99455.09;;;24.99
45701;BMP280;36277;32.852;-116.998;2022-08-20T08:20:04;99455.28;;;25.04
45701;BMP280;36277;32.852;-116.998;2022-08-20T08:22:31;99446.38;;;25.08
45701;BMP280;36277;32.852;-116.998;2022-08-20T08:24:58;99448.47;;;25.13
45701;BMP280;36277;32.852;-116.998;2022-08-20T08:27:28;99443.41;;;25.16
45701;BMP280;36277;32.852;-116.998;2022-08-20T08:30:01;99437.44;;;25.19
45701;BMP280;36277;32.852;-116.998;2022-08-20T08:32:28;99445.31;;;25.22
45701;BMP280;36277;32.852;-116.998;2022-08-20T08:34:57;99448.25;;;25.27
45701;BMP280;36277;32.852;-116.998;2022-08-20T08:37:23;99438.91;;;25.28
45701;BMP280;36277;32.852;-116.998;2022-08-20T08:39:50;99429.97;;;25.32
45701;BMP280;36277;32.852;-116.998;2022-08-20T08:42:43;99440.97;;;25.39
45701;BMP280;36277;32.852;-116.998;2022-08-20T08:45:12;99435.69;;;25.37
45701;BMP280;36277;32.852;-116.998;2022-08-20T08:47:43;99441.41;;;25.42
45701;BMP280;36277;32.852;-116.998;2022-08-20T08:50:23;99439.69;;;25.48
45701;BMP280;36277;32.852;-116.998;2022-08-20T08:52:52;99449.44;;;25.50
45701;BMP280;36277;32.852;-116.998;2022-08-20T08:55:20;99446.47;;;25.52
45701;BMP280;36277;32.852;-116.998;2022-08-20T08:57:48;99439.00;;;25.52
45701;BMP280;36277;32.852;-116.998;2022-08-20T09:00:18;99443.91;;;25.57
45701;BMP280;36277;32.852;-116.998;2022-08-20T09:03:32;99441.34;;;25.55
45701;BMP280;36277;32.852;-116.998;2022-08-20T09:06:00;99443.28;;;25.55
45701;BMP280;36277;32.852;-116.998;2022-08-20T09:08:34;99438.78;;;25.60
45701;BMP280;36277;32.852;-116.998;2022-08-20T09:11:05;99445.16;;;25.61
45701;BMP280;36277;32.852;-116.998;2022-08-20T09:13:33;99461.94;;;25.59
45701;BMP280;36277;32.852;-116.998;2022-08-20T09:16:00;99461.31;;;25.57
45701;BMP280;36277;32.852;-116.998;2022-08-20T09:18:27;99461.94;;;25.59
45701;BMP280;36277;32.852;-116.998;2022-08-20T09:20:53;99471.94;;;25.60
45701;BMP280;36277;32.852;-116.998;2022-08-20T09:23:20;99468.09;;;25.61
45701;BMP280;36277;32.852;-116.998;2022-08-20T09:25:46;99464.28;;;25.62
45701;BMP280;36277;32.852;-116.998;2022-08-20T09:28:12;99465.13;;;25.56
45701;BMP280;36277;32.852;-116.998;2022-08-20T09:30:39;99467.91;;;25.56
45701;BMP280;36277;32.852;-116.998;2022-08-20T09:33:05;99477.25;;;25.55
45701;BMP280;36277;32.852;-116.998;2022-08-20T09:35:31;99468.34;;;25.53
45701;BMP280;36277;32.852;-116.998;2022-08-20T09:37:59;99457.47;;;25.58
45701;BMP280;36277;32.852;-116.998;2022-08-20T09:40:25;99451.31;;;25.56
45701;BMP280;36277;32.852;-116.998;2022-08-20T09:42:52;99454.31;;;25.55
45701;BMP280;36277;32.852;-116.998;2022-08-20T09:45:19;99454.94;;;25.57
45701;BMP280;36277;32.852;-116.998;2022-08-20T09:47:45;99447.94;;;25.61
45701;BMP280;36277;32.852;-116.998;2022-08-20T09:50:11;99446.63;;;25.63
45701;BMP280;36277;32.852;-116.998;2022-08-20T09:52:45;99442.56;;;25.66
45701;BMP280;36277;32.852;-116.998;2022-08-20T09:55:44;99447.03;;;25.67
45701;BMP280;36277;32.852;-116.998;2022-08-20T09:58:21;99443.41;;;25.66
45701;BMP280;36277;32.852;-116.998;2022-08-20T10:00:49;99441.09;;;25.63
45701;BMP280;36277;32.852;-116.998;2022-08-20T10:03:15;99433.63;;;25.64
45701;BMP280;36277;32.852;-116.998;2022-08-20T10:05:42;99435.13;;;25.66
45701;BMP280;36277;32.852;-116.998;2022-08-20T10:08:09;99434.69;;;25.69
45701;BMP280;36277;32.852;-116.998;2022-08-20T10:10:36;99430.00;;;25.70
45701;BMP280;36277;32.852;-116.998;2022-08-20T10:13:03;99430.59;;;25.78
45701;BMP280;36277;32.852;-116.998;2022-08-20T10:15:30;99435.28;;;25.84
45701;BMP280;36277;32.852;-116.998;2022-08-20T10:17:56;99461.63;;;25.87
45701;BMP280;36277;32.852;-116.998;2022-08-20T10:20:24;99474.16;;;25.89
45701;BMP280;36277;32.852;-116.998;2022-08-20T10:22:50;99479.69;;;25.89
45701;BMP280;36277;32.852;-116.998;2022-08-20T10:25:16;99475.44;;;25.93
45701;BMP280;36277;32.852;-116.998;2022-08-20T10:27:43;99481.59;;;25.95
45701;BMP280;36277;32.852;-116.998;2022-08-20T10:30:10;99462.63;;;25.99
45701;BMP280;36277;32.852;-116.998;2022-08-20T10:32:37;99452.44;;;25.99
45701;BMP280;36277;32.852;-116.998;2022-08-20T10:35:03;99458.53;;;26.01
45701;BMP280;36277;32.852;-116.998;2022-08-20T10:37:30;99459.81;;;26.05
45701;BMP280;36277;32.852;-116.998;2022-08-20T10:39:56;99466.19;;;26.06
45701;BMP280;36277;32.852;-116.998;2022-08-20T10:42:22;99461.28;;;26.08
45701;BMP280;36277;32.852;-116.998;2022-08-20T10:44:49;99461.94;;;26.10
45701;BMP280;36277;32.852;-116.998;2022-08-20T10:47:19;99458.47;;;26.14
45701;BMP280;36277;32.852;-116.998;2022-08-20T10:49:47;99461.25;;;26.14
45701;BMP280;36277;32.852;-116.998;2022-08-20T10:52:14;99470.16;;;26.16
45701;BMP280;36277;32.852;-116.998;2022-08-20T10:54:41;99472.50;;;26.19
45701;BMP280;36277;32.852;-116.998;2022-08-20T10:57:11;99484.41;;;26.20
45701;BMP280;36277;32.852;-116.998;2022-08-20T10:59:41;99481.25;;;26.16
45701;BMP280;36277;32.852;-116.998;2022-08-20T11:02:08;99487.66;;;26.10
45701;BMP280;36277;32.852;-116.998;2022-08-20T11:04:35;99478.53;;;26.10
45701;BMP280;36277;32.852;-116.998;2022-08-20T11:07:13;99479.97;;;26.12
45701;BMP280;36277;32.852;-116.998;2022-08-20T11:09:40;99470.88;;;26.05
45701;BMP280;36277;32.852;-116.998;2022-08-20T11:12:06;99471.50;;;26.07
45701;BMP280;36277;32.852;-116.998;2022-08-20T11:14:32;99468.72;;;26.07
45701;BMP280;36277;32.852;-116.998;2022-08-20T11:17:00;99467.03;;;26.06
45701;BMP280;36277;32.852;-116.998;2022-08-20T11:19:26;99463.19;;;26.07
45701;BMP280;36277;32.852;-116.998;2022-08-20T11:21:53;99480.22;;;26.11
45701;BMP280;36277;32.852;-116.998;2022-08-20T11:24:19;99482.34;;;26.09
45701;BMP280;36277;32.852;-116.998;2022-08-20T11:26:46;99482.13;;;26.10
45701;BMP280;36277;32.852;-116.998;2022-08-20T11:29:14;99479.16;;;26.12
45701;BMP280;36277;32.852;-116.998;2022-08-20T11:31:40;99481.91;;;26.12
45701;BMP280;36277;32.852;-116.998;2022-08-20T11:34:06;99494.63;;;26.13
45701;BMP280;36277;32.852;-116.998;2022-08-20T11:36:32;99513.81;;;26.14
45701;BMP280;36277;32.852;-116.998;2022-08-20T11:38:59;99510.41;;;26.12
45701;BMP280;36277;32.852;-116.998;2022-08-20T11:41:25;99515.50;;;26.15
45701;BMP280;36277;32.852;-116.998;2022-08-20T11:43:51;99502.09;;;26.12
45701;BMP280;36277;32.852;-116.998;2022-08-20T11:46:17;99496.34;;;26.14
45701;BMP280;36277;32.852;-116.998;2022-08-20T11:48:44;99495.94;;;26.10
45701;BMP280;36277;32.852;-116.998;2022-08-20T11:51:10;99488.50;;;26.11
45701;BMP280;36277;32.852;-116.998;2022-08-20T11:53:36;99491.03;;;26.12
45701;BMP280;36277;32.852;-116.998;2022-08-20T11:56:03;99504.03;;;26.12
45701;BMP280;36277;32.852;-116.998;2022-08-20T11:58:29;99514.88;;;26.13
45701;BMP280;36277;32.852;-116.998;2022-08-20T12:00:55;99515.94;;;26.12
45701;BMP280;36277;32.852;-116.998;2022-08-20T12:03:21;99511.22;;;26.13
45701;BMP280;36277;32.852;-116.998;2022-08-20T12:05:48;99510.41;;;26.12
45701;BMP280;36277;32.852;-116.998;2022-08-20T12:08:15;99519.34;;;26.14
45701;BMP280;36277;32.852;-116.998;2022-08-20T12:10:41;99515.09;;;26.12
45701;BMP280;36277;32.852;-116.998;2022-08-20T12:13:07;99530.59;;;26.13
45701;BMP280;36277;32.852;-116.998;2022-08-20T12:15:35;99533.38;;;26.13
45701;BMP280;36277;32.852;-116.998;2022-08-20T12:18:10;99540.16;;;26.17
45701;BMP280;36277;32.852;-116.998;2022-08-20T12:20:36;99544.00;;;26.16
45701;BMP280;36277;32.852;-116.998;2022-08-20T12:23:03;99548.44;;;26.17
45701;BMP280;36277;32.852;-116.998;2022-08-20T12:25:30;99544.00;;;26.16
45701;BMP280;36277;32.852;-116.998;2022-08-20T12:27:57;99547.63;;;26.16
45701;BMP280;36277;32.852;-116.998;2022-08-20T12:30:24;99550.16;;;26.18
45701;BMP280;36277;32.852;-116.998;2022-08-20T12:32:51;99552.91;;;26.18
45701;BMP280;36277;32.852;-116.998;2022-08-20T12:35:17;99556.56;;;26.18
45701;BMP280;36277;32.852;-116.998;2022-08-20T12:37:45;99558.88;;;26.21
45701;BMP280;36277;32.852;-116.998;2022-08-20T12:40:16;99568.00;;;26.22
45701;BMP280;36277;32.852;-116.998;2022-08-20T12:42:43;99582.91;;;26.21
45701;BMP280;36277;32.852;-116.998;2022-08-20T12:45:09;99590.38;;;26.20
45701;BMP280;36277;32.852;-116.998;2022-08-20T12:47:38;99591.44;;;26.19
45701;BMP280;36277;32.852;-116.998;2022-08-20T12:50:09;99593.56;;;26.17
45701;BMP280;36277;32.852;-116.998;2022-08-20T12:52:35;99587.41;;;26.15
45701;BMP280;36277;32.852;-116.998;2022-08-20T12:55:03;99601.00;;;26.17
45701;BMP280;36277;32.852;-116.998;2022-08-20T13:00:16;99591.44;;;26.19
45701;BMP280;36277;32.852;-116.998;2022-08-20T13:02:45;99587.41;;;26.15
45701;BMP280;36277;32.852;-116.998;2022-08-20T13:05:12;99596.78;;;26.14
45701;BMP280;36277;32.852;-116.998;2022-08-20T13:07:40;99601.00;;;26.17
45701;BMP280;36277;32.852;-116.998;2022-08-20T13:10:09;99601.88;;;26.17
45701;BMP280;36277;32.852;-116.998;2022-08-20T13:12:35;99601.88;;;26.17
45701;BMP280;36277;32.852;-116.998;2022-08-20T13:15:02;99607.41;;;26.17
45701;BMP280;36277;32.852;-116.998;2022-08-20T13:17:28;99608.25;;;26.18
45701;BMP280;36277;32.852;-116.998;2022-08-20T13:19:55;99620.16;;;26.18
45701;BMP280;36277;32.852;-116.998;2022-08-20T13:22:22;99620.81;;;26.20
45701;BMP280;36277;32.852;-116.998;2022-08-20T13:24:48;99621.44;;;26.22
45701;BMP280;36277;32.852;-116.998;2022-08-20T13:27:17;99620.56;;;26.22
45701;BMP280;36277;32.852;-116.998;2022-08-20T13:29:50;99624.84;;;26.24
45701;BMP280;36277;32.852;-116.998;2022-08-20T13:32:17;99626.97;;;26.22
45701;BMP280;36277;32.852;-116.998;2022-08-20T13:34:44;99626.09;;;26.22
45701;BMP280;36277;32.852;-116.998;2022-08-20T13:37:16;99631.19;;;26.25
45701;BMP280;36277;32.852;-116.998;2022-08-20T13:39:43;99640.56;;;26.24
45701;BMP280;36277;32.852;-116.998;2022-08-20T13:42:11;99637.56;;;26.25
45701;BMP280;36277;32.852;-116.998;2022-08-20T13:44:38;99635.66;;;26.26
45701;BMP280;36277;32.852;-116.998;2022-08-20T13:47:26;99636.50;;;26.26
45701;BMP280;36277;32.852;-116.998;2022-08-20T13:49:58;99640.38;;;26.19